Latest Coastal Weather Observations for Newcastle Nobbys

IDN60701

Issued at 9:05 pm EST Sunday 20 April 2014 (issued every 10 minutes, with the page automatically refreshed every 10 minutes)

About coastal observations | Map of coastal stations | Coastal observations for NSW | Marine services | Other Formats
Station Details ID: 061055 Name: NEWCASTLE NOBBYS SIGNAL STATION AWS Lat: -32.92 Lon: 151.80 Height: 33.0 m
Data from the previous 72 hours. | See also: Recent months at Newcastle Nobbys
Date/Time
EST
Temp

°C
Wind Pressure Rain
since 9am
mm
Weather Cloud Vis
km
Sea
Height
m
Swell
Dir
 
Speed
knots
Gust
knots
hPa Trend Height
m
Period
s
Dir
20/09:00pm 20.0 NNE 10 12 - - 0.0 - - - - - - -
20/08:30pm 20.2 NNE 10 12 - - 0.0 - - - - - - -
20/08:00pm 20.4 NNE 8 10 - - 0.0 - - - - - - -
20/07:30pm 20.6 NNE 8 10 - - 0.0 - - - - - - -
20/07:00pm 21.0 NE 8 10 - - 0.0 - - - - - - -
20/06:30pm 21.1 NE 7 9 - - 0.0 - - - - - - -
20/06:00pm 21.1 NE 7 9 - - 0.0 - - - - - - -
20/05:30pm 21.4 NE 9 11 - - 0.0 - - - - - - -
20/05:00pm 21.8 ENE 9 12 - - 0.0 - - - - - - -
20/04:30pm 22.1 ENE 11 13 - - 0.0 - - - - - - -
20/04:00pm 22.4 ENE 11 13 - - 0.0 - - - - - - -
20/03:30pm 22.4 ENE 11 14 - - 0.0 - - - - - - -
20/03:00pm 22.3 E 11 13 - - 0.0 - - - - - - -
20/02:30pm 22.3 E 9 11 - - 0.0 - - - - - - -
20/02:00pm 22.2 E 8 10 - - 0.0 - - - - - - -
20/01:30pm 21.9 E 8 9 - - 0.0 - - - - - - -
20/01:00pm 21.5 SE 6 7 - - 0.0 - - - - - - -
20/12:30pm 21.4 SE 6 7 - - 0.0 - - - - - - -
20/12:00pm 20.9 SE 5 6 - - 0.0 - - - - - - -
20/11:30am 21.4 SE 4 5 - - 0.0 - - - - - - -
20/11:00am 21.4 SE 4 5 - - 0.0 - - - - - - -
20/10:30am 20.8 SE 4 5 - - 0.0 - - - - - - -
20/10:00am 20.9 SSE 3 4 - - 0.0 - - - - - - -
20/09:30am 20.8 NW 0 2 - - 0.0 - - - - - - -
20/09:00am 18.5 NW 2 4 - - 0.0 - - - - - - -
20/08:30am 17.7 NW 3 5 - - 0.0 - - - - - - -
20/08:00am 16.8 NW 4 5 - - 0.0 - - - - - - -
20/07:30am 16.3 W 2 4 - - 0.0 - - - - - - -
20/07:00am 15.4 NW 4 5 - - 0.0 - - - - - - -
20/06:30am 15.4 WNW 5 5 - - 0.0 - - - - - - -
20/06:00am 15.8 WNW 5 6 - - 0.0 - - - - - - -
20/05:30am 15.6 WNW 3 4 - - 0.0 - - - - - - -
20/05:00am 15.4 WNW 3 4 - - 0.0 - - - - - - -
20/04:30am 15.7 WNW 4 5 - - 0.0 - - - - - - -
20/04:00am 16.2 W 4 5 - - 0.0 - - - - - - -
20/03:30am 15.9 WNW 5 6 - - 0.0 - - - - - - -
20/03:00am 16.6 NW 5 8 - - 0.0 - - - - - - -
20/02:30am 16.3 NW 4 5 - - 0.0 - - - - - - -
20/02:00am 16.6 WNW 4 5 - - 0.0 - - - - - - -
20/01:30am 17.2 WNW 4 5 - - 0.0 - - - - - - -
20/01:00am 17.9 SW 5 8 - - 0.0 - - - - - - -
20/12:30am 18.0 SW 5 7 - - 0.0 - - - - - - -
20/12:00am 17.9 SW 4 6 - - 0.0 - - - - - - -
 
Date/Time
EST
Temp

°C
Wind Pressure Rain
since 9am
mm
Weather Cloud Vis
km
Sea
Height
m
Swell
Dir
 
Speed
knots
Gust
knots
hPa Trend Height
m
Period
s
Dir
19/11:30pm 17.9 W 5 6 - - 0.0 - - - - - - -
19/11:00pm 17.8 W 5 6 - - 0.0 - - - - - - -
19/10:30pm 18.7 WNW 6 7 - - 0.0 - - - - - - -
19/10:00pm 19.9 S 10 13 - - 0.0 - - - - - - -
19/09:30pm 19.9 S 12 14 - - 0.0 - - - - - - -
19/09:00pm 19.9 S 11 14 - - 0.0 - - - - - - -
19/08:30pm 19.9 S 11 13 - - 0.0 - - - - - - -
19/08:00pm 19.9 S 13 15 - - 0.0 - - - - - - -
19/07:30pm 19.8 S 14 17 - - 0.0 - - - - - - -
19/07:00pm 19.7 S 14 16 - - 0.0 - - - - - - -
19/06:30pm 19.7 S 14 17 - - 0.0 - - - - - - -
19/06:00pm 19.7 S 12 15 - - 0.0 - - - - - - -
19/05:30pm 19.7 S 14 16 - - 0.0 - - - - - - -
19/05:00pm 19.7 S 13 15 - - 0.0 - - - - - - -
19/04:30pm 20.4 S 14 16 - - 0.0 - - - - - - -
19/04:00pm 20.1 S 13 15 - - 0.0 - - - - - - -
19/03:30pm 20.4 S 13 16 - - 0.0 - - - - - - -
19/03:00pm 20.8 SSE 13 15 - - 0.0 - - - - - - -
19/02:30pm 20.9 S 10 13 - - 0.0 - - - - - - -
19/02:00pm 21.3 SSE 9 11 - - 0.0 - - - - - - -
19/01:30pm 21.2 S 8 10 - - 0.0 - - - - - - -
19/01:00pm 20.3 S 9 11 - - 0.0 - - - - - - -
19/12:30pm 20.4 S 10 11 - - 0.0 - - - - - - -
19/12:00pm 20.3 S 11 14 - - 0.0 - - - - - - -
19/11:30am 20.7 S 9 10 - - 0.0 - - - - - - -
19/11:00am 21.9 S 8 10 - - 0.0 - - - - - - -
19/10:30am 21.0 S 9 12 - - 0.0 - - - - - - -
19/10:00am 21.4 SSW 7 10 - - 0.0 - - - - - - -
19/09:30am 21.3 SW 7 9 - - 0.0 - - - - - - -
19/09:00am 21.1 WSW 5 8 - - 0.2 - - - - - - -
19/08:30am 20.6 WNW 7 8 - - 0.2 - - - - - - -
19/08:00am 18.7 W 5 6 - - 0.2 - - - - - - -
19/07:30am 16.7 W 6 7 - - 0.2 - - - - - - -
19/07:00am 15.6 W 7 8 - - 0.2 - - - - - - -
19/06:30am 15.3 WNW 6 7 - - 0.2 - - - - - - -
19/06:00am 16.0 NW 6 8 - - 0.2 - - - - - - -
19/05:30am 16.2 WNW 7 8 - - 0.2 - - - - - - -
19/05:00am 16.8 NW 6 7 - - 0.2 - - - - - - -
19/04:30am 17.3 WNW 7 8 - - 0.2 - - - - - - -
19/04:00am 17.9 WNW 5 6 - - 0.2 - - - - - - -
19/03:30am 18.7 W 6 9 - - 0.2 - - - - - - -
19/03:00am 17.0 WNW 4 5 - - 0.2 - - - - - - -
19/02:30am 17.3 WNW 5 7 - - 0.2 - - - - - - -
19/02:00am 17.7 NW 5 7 - - 0.2 - - - - - - -
19/01:30am 17.9 WNW 5 9 - - 0.2 - - - - - - -
19/01:00am 18.7 NW 7 8 - - 0.2 - - - - - - -
19/12:30am 18.8 WNW 5 8 - - 0.2 - - - - - - -
19/12:00am 18.9 WNW 5 7 - - 0.2 - - - - - - -
 
Date/Time
EST
Temp

°C
Wind Pressure Rain
since 9am
mm
Weather Cloud Vis
km
Sea
Height
m
Swell
Dir
 
Speed
knots
Gust
knots
hPa Trend Height
m
Period
s
Dir
18/11:30pm 19.4 W 7 9 - - 0.2 - - - - - - -
18/11:00pm 18.7 W 9 11 - - 0.2 - - - - - - -
18/10:30pm 18.7 NW 6 7 - - 0.2 - - - - - - -
18/10:00pm 19.1 NW 5 7 - - 0.2 - - - - - - -
18/09:30pm 20.2 W 7 9 - - 0.2 - - - - - - -
18/09:00pm 20.5 W 6 8 - - 0.2 - - - - - - -
18/08:30pm 21.4 WSW 9 14 - - 0.2 - - - - - - -
18/08:00pm 20.7 W 11 14 - - 0.2 - - - - - - -
18/07:30pm 20.4 NW 5 7 - - 0.2 - - - - - - -
18/07:00pm 20.9 NNW 2 3 - - 0.2 - - - - - - -
18/06:30pm 21.3 N 2 3 - - 0.2 - - - - - - -
18/06:00pm 21.4 ENE 4 5 - - 0.2 - - - - - - -
18/05:30pm 21.8 E 4 5 - - 0.2 - - - - - - -
18/05:00pm 22.6 ESE 5 5 - - 0.2 - - - - - - -
18/04:30pm 23.1 SE 5 6 - - 0.2 - - - - - - -
18/04:00pm 24.1 SE 4 7 - - 0.2 - - - - - - -
18/03:30pm 23.8 ESE 6 8 - - 0.2 - - - - - - -
18/03:00pm 24.2 W 5 12 - - 0.2 - - - - - - -
18/02:30pm 25.0 WNW 6 11 - - 0.2 - - - - - - -
18/02:00pm 24.6 NW 9 13 - - 0.2 - - - - - - -
18/01:30pm 24.6 NW 4 8 - - 0.2 - - - - - - -
18/01:00pm 24.0 NW 9 14 - - 0.2 - - - - - - -
18/12:30pm 24.3 NW 10 14 - - 0.2 - - - - - - -
18/12:00pm 23.9 WNW 11 15 - - 0.2 Recent precip. - - - - - -
18/11:30am 23.5 WNW 10 14 - - 0.2 - - - - - - -
18/11:00am 22.3 NW 10 14 - - 0.0 - - - - - - -
18/10:30am 21.2 NW 10 13 - - 0.0 - - - - - - -
18/10:00am 21.0 NW 10 14 - - 0.0 - - - - - - -
18/09:30am 19.5 WNW 9 14 - - 0.0 - - - - - - -
18/09:00am 18.5 NW 10 13 - - 0.0 - - - - - - -
18/08:30am 17.6 WNW 9 11 - - 0.0 - - - - - - -
18/08:00am 16.5 WNW 10 14 - - 0.0 - - - - - - -
18/07:30am 15.3 NW 9 11 - - 0.0 - - - - - - -
18/07:00am 14.4 WNW 7 8 - - 0.0 - - - - - - -
18/06:30am 14.0 NW 8 9 - - 0.0 - - - - - - -
18/06:00am 14.0 NW 6 7 - - 0.0 - - - - - - -
18/05:30am 14.3 NW 6 7 - - 0.0 - - - - - - -
18/05:00am 14.5 NW 6 8 - - 0.0 - - - - - - -
18/04:30am 14.8 NW 7 9 - - 0.0 - - - - - - -
18/04:00am 14.9 NW 7 8 - - 0.0 - - - - - - -
18/03:30am 15.1 NW 7 9 - - 0.0 - - - - - - -
18/03:00am 15.4 WNW 7 9 - - 0.0 - - - - - - -
18/02:30am 15.4 WNW 6 8 - - 0.0 - - - - - - -
18/02:00am 15.5 NW 5 6 - - 0.0 - - - - - - -
18/01:30am 15.9 NW 6 7 - - 0.0 - - - - - - -
18/01:00am 16.5 NW 5 7 - - 0.0 - - - - - - -
18/12:30am 16.9 W 7 9 - - 0.0 - - - - - - -
18/12:00am 17.1 WNW 7 9 - - 0.0 - - - - - - -
 
Date/Time
EST
Temp

°C
Wind Pressure Rain
since 9am
mm
Weather Cloud Vis
km
Sea
Height
m
Swell
Dir
 
Speed
knots
Gust
knots
hPa Trend Height
m
Period
s
Dir
17/11:30pm 17.5 W 8 9 - - 0.0 - - - - - - -
17/11:00pm 18.3 W 6 8 - - 0.0 - - - - - - -
17/10:30pm 18.4 W 5 8 - - 0.0 - - - - - - -
17/10:00pm 19.5 WSW 5 9 - - 0.0 - - - - - - -
17/09:30pm 19.8 S 6 9 - - 0.0 - - - - - - -

Other Formats:

Comma delimited format used in spreadsheet applications
http://www.bom.gov.au/fwo/IDN60701/IDN60701.94774.axf

JavaScript Object Notation format (JSON) in row-major order
http://www.bom.gov.au/fwo/IDN60701/IDN60701.94774.json